sensor_id;sensor_type;location;lat;lon;timestamp;P1;durP1;ratioP1;P2;durP2;ratioP2
7017;SDS011;3549;42.162;24.726;2024-01-15T00:01:16;256.20;;;82.47;;
7017;SDS011;3549;42.162;24.726;2024-01-15T00:03:41;237.93;;;79.00;;
7017;SDS011;3549;42.162;24.726;2024-01-15T00:06:07;196.07;;;64.83;;
7017;SDS011;3549;42.162;24.726;2024-01-15T00:08:32;193.27;;;65.87;;
7017;SDS011;3549;42.162;24.726;2024-01-15T00:10:58;171.57;;;56.43;;
7017;SDS011;3549;42.162;24.726;2024-01-15T00:13:23;161.40;;;53.23;;
7017;SDS011;3549;42.162;24.726;2024-01-15T00:15:48;168.97;;;52.27;;
7017;SDS011;3549;42.162;24.726;2024-01-15T00:18:14;119.73;;;40.90;;
7017;SDS011;3549;42.162;24.726;2024-01-15T00:20:39;117.63;;;38.63;;
7017;SDS011;3549;42.162;24.726;2024-01-15T00:23:05;101.10;;;34.83;;
7017;SDS011;3549;42.162;24.726;2024-01-15T00:25:30;114.43;;;37.73;;
7017;SDS011;3549;42.162;24.726;2024-01-15T00:27:56;99.17;;;35.00;;
7017;SDS011;3549;42.162;24.726;2024-01-15T00:30:21;99.30;;;33.10;;
7017;SDS011;3549;42.162;24.726;2024-01-15T00:32:46;86.97;;;30.57;;
7017;SDS011;3549;42.162;24.726;2024-01-15T00:35:12;82.07;;;28.13;;
7017;SDS011;3549;42.162;24.726;2024-01-15T00:37:37;101.27;;;34.40;;
7017;SDS011;3549;42.162;24.726;2024-01-15T00:40:03;104.03;;;36.33;;
7017;SDS011;3549;42.162;24.726;2024-01-15T00:42:29;118.53;;;40.35;;
7017;SDS011;3549;42.162;24.726;2024-01-15T00:44:55;120.47;;;42.27;;
7017;SDS011;3549;42.162;24.726;2024-01-15T00:47:20;120.23;;;42.33;;
7017;SDS011;3549;42.162;24.726;2024-01-15T00:49:46;137.03;;;45.10;;
7017;SDS011;3549;42.162;24.726;2024-01-15T00:52:11;127.07;;;43.23;;
7017;SDS011;3549;42.162;24.726;2024-01-15T00:54:36;125.63;;;43.47;;
7017;SDS011;3549;42.162;24.726;2024-01-15T00:57:03;134.35;;;45.40;;
7017;SDS011;3549;42.162;24.726;2024-01-15T00:59:28;132.83;;;44.50;;
7017;SDS011;3549;42.162;24.726;2024-01-15T01:01:53;120.97;;;42.27;;
7017;SDS011;3549;42.162;24.726;2024-01-15T01:04:19;136.27;;;44.03;;
7017;SDS011;3549;42.162;24.726;2024-01-15T01:06:45;154.70;;;55.47;;
7017;SDS011;3549;42.162;24.726;2024-01-15T01:09:10;138.63;;;51.27;;
7017;SDS011;3549;42.162;24.726;2024-01-15T01:11:35;131.70;;;46.00;;
7017;SDS011;3549;42.162;24.726;2024-01-15T01:14:01;123.57;;;45.97;;
7017;SDS011;3549;42.162;24.726;2024-01-15T01:16:26;155.13;;;53.70;;
7017;SDS011;3549;42.162;24.726;2024-01-15T01:18:52;137.80;;;47.33;;
7017;SDS011;3549;42.162;24.726;2024-01-15T01:21:17;165.30;;;55.77;;
7017;SDS011;3549;42.162;24.726;2024-01-15T01:23:43;190.17;;;58.63;;
7017;SDS011;3549;42.162;24.726;2024-01-15T01:26:08;163.63;;;56.60;;
7017;SDS011;3549;42.162;24.726;2024-01-15T01:28:33;148.23;;;49.90;;
7017;SDS011;3549;42.162;24.726;2024-01-15T01:30:59;151.93;;;51.40;;
7017;SDS011;3549;42.162;24.726;2024-01-15T01:33:24;128.63;;;45.13;;
7017;SDS011;3549;42.162;24.726;2024-01-15T01:35:50;121.83;;;41.30;;
7017;SDS011;3549;42.162;24.726;2024-01-15T01:38:15;109.63;;;36.40;;
7017;SDS011;3549;42.162;24.726;2024-01-15T01:40:41;110.07;;;38.23;;
7017;SDS011;3549;42.162;24.726;2024-01-15T01:43:06;110.20;;;37.47;;
7017;SDS011;3549;42.162;24.726;2024-01-15T01:45:33;98.15;;;36.13;;
7017;SDS011;3549;42.162;24.726;2024-01-15T01:47:59;131.87;;;40.30;;
7017;SDS011;3549;42.162;24.726;2024-01-15T01:50:26;92.72;;;32.33;;
7017;SDS011;3549;42.162;24.726;2024-01-15T01:52:51;101.47;;;34.67;;
7017;SDS011;3549;42.162;24.726;2024-01-15T01:55:17;100.00;;;35.10;;
7017;SDS011;3549;42.162;24.726;2024-01-15T01:57:44;87.20;;;30.73;;
7017;SDS011;3549;42.162;24.726;2024-01-15T02:00:09;84.23;;;30.07;;
7017;SDS011;3549;42.162;24.726;2024-01-15T02:02:35;81.82;;;29.55;;
7017;SDS011;3549;42.162;24.726;2024-01-15T02:05:02;85.10;;;30.27;;
7017;SDS011;3549;42.162;24.726;2024-01-15T02:07:29;80.53;;;26.88;;
7017;SDS011;3549;42.162;24.726;2024-01-15T02:09:55;85.80;;;30.17;;
7017;SDS011;3549;42.162;24.726;2024-01-15T02:12:21;97.33;;;34.27;;
7017;SDS011;3549;42.162;24.726;2024-01-15T02:14:47;86.90;;;31.73;;
7017;SDS011;3549;42.162;24.726;2024-01-15T02:17:12;91.70;;;32.53;;
7017;SDS011;3549;42.162;24.726;2024-01-15T02:19:37;87.57;;;31.73;;
7017;SDS011;3549;42.162;24.726;2024-01-15T02:22:04;88.97;;;31.88;;
7017;SDS011;3549;42.162;24.726;2024-01-15T02:24:30;89.50;;;31.23;;
7017;SDS011;3549;42.162;24.726;2024-01-15T02:26:55;84.80;;;28.97;;
7017;SDS011;3549;42.162;24.726;2024-01-15T02:29:21;88.27;;;32.20;;
7017;SDS011;3549;42.162;24.726;2024-01-15T02:31:46;94.63;;;30.37;;
7017;SDS011;3549;42.162;24.726;2024-01-15T02:34:11;90.57;;;29.50;;
7017;SDS011;3549;42.162;24.726;2024-01-15T02:36:37;77.10;;;24.60;;
7017;SDS011;3549;42.162;24.726;2024-01-15T02:39:02;84.00;;;28.87;;
7017;SDS011;3549;42.162;24.726;2024-01-15T02:41:28;74.53;;;27.20;;
7017;SDS011;3549;42.162;24.726;2024-01-15T02:43:53;106.60;;;34.63;;
7017;SDS011;3549;42.162;24.726;2024-01-15T02:46:19;87.87;;;32.03;;
7017;SDS011;3549;42.162;24.726;2024-01-15T02:48:44;84.80;;;30.90;;
7017;SDS011;3549;42.162;24.726;2024-01-15T02:51:10;83.77;;;30.00;;
7017;SDS011;3549;42.162;24.726;2024-01-15T02:53:35;86.50;;;31.50;;
7017;SDS011;3549;42.162;24.726;2024-01-15T02:56:01;85.25;;;28.67;;
7017;SDS011;3549;42.162;24.726;2024-01-15T02:58:27;74.10;;;26.13;;
7017;SDS011;3549;42.162;24.726;2024-01-15T03:00:52;73.00;;;26.70;;
7017;SDS011;3549;42.162;24.726;2024-01-15T03:03:17;75.97;;;27.07;;
7017;SDS011;3549;42.162;24.726;2024-01-15T03:05:43;77.77;;;26.97;;
7017;SDS011;3549;42.162;24.726;2024-01-15T03:08:08;77.43;;;27.63;;
7017;SDS011;3549;42.162;24.726;2024-01-15T03:10:34;74.20;;;27.47;;
7017;SDS011;3549;42.162;24.726;2024-01-15T03:12:59;79.70;;;27.53;;
7017;SDS011;3549;42.162;24.726;2024-01-15T03:15:24;84.73;;;28.87;;
7017;SDS011;3549;42.162;24.726;2024-01-15T03:17:50;81.27;;;28.47;;
7017;SDS011;3549;42.162;24.726;2024-01-15T03:20:15;66.83;;;23.70;;
7017;SDS011;3549;42.162;24.726;2024-01-15T03:22:40;77.70;;;25.73;;
7017;SDS011;3549;42.162;24.726;2024-01-15T03:25:06;76.10;;;26.47;;
7017;SDS011;3549;42.162;24.726;2024-01-15T03:27:31;82.97;;;28.07;;
7017;SDS011;3549;42.162;24.726;2024-01-15T03:29:57;86.70;;;29.80;;
7017;SDS011;3549;42.162;24.726;2024-01-15T03:32:22;66.60;;;22.00;;
7017;SDS011;3549;42.162;24.726;2024-01-15T03:34:47;94.20;;;29.43;;
7017;SDS011;3549;42.162;24.726;2024-01-15T03:37:13;85.77;;;30.07;;
7017;SDS011;3549;42.162;24.726;2024-01-15T03:39:38;105.83;;;37.10;;
7017;SDS011;3549;42.162;24.726;2024-01-15T03:42:04;108.50;;;36.73;;
7017;SDS011;3549;42.162;24.726;2024-01-15T03:44:29;116.47;;;37.70;;
7017;SDS011;3549;42.162;24.726;2024-01-15T03:46:55;102.97;;;30.73;;
7017;SDS011;3549;42.162;24.726;2024-01-15T03:49:20;90.93;;;29.70;;
7017;SDS011;3549;42.162;24.726;2024-01-15T03:51:46;79.43;;;27.33;;
7017;SDS011;3549;42.162;24.726;2024-01-15T03:54:11;81.43;;;27.43;;
7017;SDS011;3549;42.162;24.726;2024-01-15T03:56:36;86.00;;;26.77;;
7017;SDS011;3549;42.162;24.726;2024-01-15T03:59:02;107.30;;;37.83;;
7017;SDS011;3549;42.162;24.726;2024-01-15T04:01:28;105.87;;;35.70;;
7017;SDS011;3549;42.162;24.726;2024-01-15T04:03:53;88.57;;;28.47;;
7017;SDS011;3549;42.162;24.726;2024-01-15T04:06:18;66.30;;;24.83;;
7017;SDS011;3549;42.162;24.726;2024-01-15T04:08:44;84.53;;;28.20;;
7017;SDS011;3549;42.162;24.726;2024-01-15T04:11:09;76.50;;;26.47;;
7017;SDS011;3549;42.162;24.726;2024-01-15T04:13:35;75.37;;;26.07;;
7017;SDS011;3549;42.162;24.726;2024-01-15T04:16:00;77.60;;;26.93;;
7017;SDS011;3549;42.162;24.726;2024-01-15T04:18:26;100.60;;;34.13;;
7017;SDS011;3549;42.162;24.726;2024-01-15T04:20:51;102.47;;;34.53;;
7017;SDS011;3549;42.162;24.726;2024-01-15T04:23:16;149.43;;;52.60;;
7017;SDS011;3549;42.162;24.726;2024-01-15T04:25:42;139.63;;;49.50;;
7017;SDS011;3549;42.162;24.726;2024-01-15T04:28:08;102.60;;;36.20;;
7017;SDS011;3549;42.162;24.726;2024-01-15T04:30:34;106.57;;;35.88;;
7017;SDS011;3549;42.162;24.726;2024-01-15T04:32:59;101.97;;;35.53;;
7017;SDS011;3549;42.162;24.726;2024-01-15T04:35:24;75.30;;;28.50;;
7017;SDS011;3549;42.162;24.726;2024-01-15T04:37:50;96.47;;;34.73;;
7017;SDS011;3549;42.162;24.726;2024-01-15T04:40:15;77.07;;;27.53;;
7017;SDS011;3549;42.162;24.726;2024-01-15T04:42:41;76.47;;;27.27;;
7017;SDS011;3549;42.162;24.726;2024-01-15T04:45:06;89.07;;;31.07;;
7017;SDS011;3549;42.162;24.726;2024-01-15T04:47:32;109.23;;;37.03;;
7017;SDS011;3549;42.162;24.726;2024-01-15T04:49:57;101.93;;;34.53;;
7017;SDS011;3549;42.162;24.726;2024-01-15T04:52:22;112.70;;;41.00;;
7017;SDS011;3549;42.162;24.726;2024-01-15T04:54:48;111.53;;;38.33;;
7017;SDS011;3549;42.162;24.726;2024-01-15T04:57:14;121.70;;;44.40;;
7017;SDS011;3549;42.162;24.726;2024-01-15T04:59:40;177.87;;;61.03;;
7017;SDS011;3549;42.162;24.726;2024-01-15T05:02:05;235.80;;;82.93;;
7017;SDS011;3549;42.162;24.726;2024-01-15T05:04:31;156.77;;;53.77;;
7017;SDS011;3549;42.162;24.726;2024-01-15T05:06:57;137.90;;;49.13;;
7017;SDS011;3549;42.162;24.726;2024-01-15T05:09:23;168.23;;;58.30;;
7017;SDS011;3549;42.162;24.726;2024-01-15T05:11:48;170.80;;;60.03;;
7017;SDS011;3549;42.162;24.726;2024-01-15T05:14:14;148.37;;;54.23;;
7017;SDS011;3549;42.162;24.726;2024-01-15T05:16:39;171.30;;;58.87;;
7017;SDS011;3549;42.162;24.726;2024-01-15T05:19:11;143.93;;;49.47;;
7017;SDS011;3549;42.162;24.726;2024-01-15T05:21:36;205.03;;;68.63;;
7017;SDS011;3549;42.162;24.726;2024-01-15T05:24:02;258.07;;;80.53;;
7017;SDS011;3549;42.162;24.726;2024-01-15T05:26:27;228.30;;;75.97;;
7017;SDS011;3549;42.162;24.726;2024-01-15T05:28:53;208.23;;;71.47;;
7017;SDS011;3549;42.162;24.726;2024-01-15T05:31:18;263.17;;;84.23;;
7017;SDS011;3549;42.162;24.726;2024-01-15T05:33:43;179.87;;;59.87;;
7017;SDS011;3549;42.162;24.726;2024-01-15T05:36:09;127.97;;;44.97;;
7017;SDS011;3549;42.162;24.726;2024-01-15T05:38:34;129.73;;;45.77;;
7017;SDS011;3549;42.162;24.726;2024-01-15T05:40:59;97.80;;;36.57;;
7017;SDS011;3549;42.162;24.726;2024-01-15T05:43:25;88.20;;;33.10;;
7017;SDS011;3549;42.162;24.726;2024-01-15T05:45:50;83.00;;;29.87;;
7017;SDS011;3549;42.162;24.726;2024-01-15T05:48:16;69.70;;;26.70;;
7017;SDS011;3549;42.162;24.726;2024-01-15T05:50:41;88.57;;;33.60;;
7017;SDS011;3549;42.162;24.726;2024-01-15T05:53:07;160.97;;;56.53;;
7017;SDS011;3549;42.162;24.726;2024-01-15T05:55:33;231.57;;;74.20;;
7017;SDS011;3549;42.162;24.726;2024-01-15T05:57:58;201.17;;;61.23;;
7017;SDS011;3549;42.162;24.726;2024-01-15T06:00:23;202.37;;;63.50;;
7017;SDS011;3549;42.162;24.726;2024-01-15T06:02:49;150.70;;;46.23;;
7017;SDS011;3549;42.162;24.726;2024-01-15T06:05:14;120.07;;;38.33;;
7017;SDS011;3549;42.162;24.726;2024-01-15T06:07:40;118.90;;;40.47;;
7017;SDS011;3549;42.162;24.726;2024-01-15T06:10:05;86.70;;;32.10;;
7017;SDS011;3549;42.162;24.726;2024-01-15T06:12:31;120.78;;;42.28;;
7017;SDS011;3549;42.162;24.726;2024-01-15T06:14:58;123.93;;;42.85;;
7017;SDS011;3549;42.162;24.726;2024-01-15T06:17:24;114.80;;;39.03;;
7017;SDS011;3549;42.162;24.726;2024-01-15T06:19:49;139.07;;;40.27;;
7017;SDS011;3549;42.162;24.726;2024-01-15T06:22:15;106.50;;;35.93;;
7017;SDS011;3549;42.162;24.726;2024-01-15T06:24:40;101.63;;;33.00;;
7017;SDS011;3549;42.162;24.726;2024-01-15T06:27:06;90.75;;;30.65;;
7017;SDS011;3549;42.162;24.726;2024-01-15T06:29:31;108.70;;;38.70;;
7017;SDS011;3549;42.162;24.726;2024-01-15T06:31:57;109.33;;;36.23;;
7017;SDS011;3549;42.162;24.726;2024-01-15T06:34:22;124.00;;;44.30;;
7017;SDS011;3549;42.162;24.726;2024-01-15T06:36:47;106.33;;;36.60;;
7017;SDS011;3549;42.162;24.726;2024-01-15T06:39:13;97.23;;;34.07;;
7017;SDS011;3549;42.162;24.726;2024-01-15T06:41:38;100.97;;;32.43;;
7017;SDS011;3549;42.162;24.726;2024-01-15T06:44:09;104.22;;;35.80;;
7017;SDS011;3549;42.162;24.726;2024-01-15T06:46:44;110.75;;;38.33;;
7017;SDS011;3549;42.162;24.726;2024-01-15T06:49:09;222.07;;;76.50;;
7017;SDS011;3549;42.162;24.726;2024-01-15T06:51:35;186.13;;;57.27;;
7017;SDS011;3549;42.162;24.726;2024-01-15T06:54:01;238.27;;;84.30;;
7017;SDS011;3549;42.162;24.726;2024-01-15T06:56:27;411.90;;;146.57;;
7017;SDS011;3549;42.162;24.726;2024-01-15T06:58:52;228.17;;;80.97;;
7017;SDS011;3549;42.162;24.726;2024-01-15T07:01:17;148.60;;;55.33;;
7017;SDS011;3549;42.162;24.726;2024-01-15T07:03:43;130.97;;;48.97;;
7017;SDS011;3549;42.162;24.726;2024-01-15T07:06:08;119.60;;;43.10;;
7017;SDS011;3549;42.162;24.726;2024-01-15T07:08:34;122.00;;;43.23;;
7017;SDS011;3549;42.162;24.726;2024-01-15T07:10:59;132.73;;;51.73;;
7017;SDS011;3549;42.162;24.726;2024-01-15T07:13:24;124.70;;;43.27;;
7017;SDS011;3549;42.162;24.726;2024-01-15T07:15:50;118.80;;;38.40;;
7017;SDS011;3549;42.162;24.726;2024-01-15T07:18:15;102.47;;;37.07;;
7017;SDS011;3549;42.162;24.726;2024-01-15T07:20:41;106.60;;;35.50;;
7017;SDS011;3549;42.162;24.726;2024-01-15T07:23:07;106.37;;;38.20;;
7017;SDS011;3549;42.162;24.726;2024-01-15T07:25:32;97.80;;;35.17;;
7017;SDS011;3549;42.162;24.726;2024-01-15T07:27:57;91.67;;;32.87;;
7017;SDS011;3549;42.162;24.726;2024-01-15T07:30:23;111.83;;;46.23;;
7017;SDS011;3549;42.162;24.726;2024-01-15T07:32:48;122.57;;;44.97;;
7017;SDS011;3549;42.162;24.726;2024-01-15T07:35:14;135.83;;;48.47;;
7017;SDS011;3549;42.162;24.726;2024-01-15T07:37:40;164.57;;;55.45;;
7017;SDS011;3549;42.162;24.726;2024-01-15T07:40:06;115.87;;;37.87;;
7017;SDS011;3549;42.162;24.726;2024-01-15T07:42:33;129.30;;;43.83;;
7017;SDS011;3549;42.162;24.726;2024-01-15T07:45:00;335.67;;;88.22;;
7017;SDS011;3549;42.162;24.726;2024-01-15T07:47:26;87.35;;;30.27;;
7017;SDS011;3549;42.162;24.726;2024-01-15T07:49:52;94.57;;;32.20;;
7017;SDS011;3549;42.162;24.726;2024-01-15T07:52:17;117.87;;;43.53;;
7017;SDS011;3549;42.162;24.726;2024-01-15T07:54:43;97.40;;;34.73;;
7017;SDS011;3549;42.162;24.726;2024-01-15T07:57:09;93.43;;;34.78;;
7017;SDS011;3549;42.162;24.726;2024-01-15T07:59:35;87.32;;;31.73;;
7017;SDS011;3549;42.162;24.726;2024-01-15T08:02:00;101.20;;;38.57;;
7017;SDS011;3549;42.162;24.726;2024-01-15T08:04:26;132.63;;;48.50;;
7017;SDS011;3549;42.162;24.726;2024-01-15T08:06:51;145.83;;;53.93;;
7017;SDS011;3549;42.162;24.726;2024-01-15T08:09:17;122.63;;;49.30;;
7017;SDS011;3549;42.162;24.726;2024-01-15T08:11:43;133.50;;;49.83;;
7017;SDS011;3549;42.162;24.726;2024-01-15T08:14:09;177.53;;;54.47;;
7017;SDS011;3549;42.162;24.726;2024-01-15T08:16:36;107.50;;;34.95;;
7017;SDS011;3549;42.162;24.726;2024-01-15T08:19:02;98.13;;;38.60;;
7017;SDS011;3549;42.162;24.726;2024-01-15T08:21:27;95.40;;;37.27;;
7017;SDS011;3549;42.162;24.726;2024-01-15T08:23:57;89.37;;;32.57;;
7017;SDS011;3549;42.162;24.726;2024-01-15T08:26:23;62.73;;;26.17;;
7017;SDS011;3549;42.162;24.726;2024-01-15T08:28:48;85.97;;;34.10;;
7017;SDS011;3549;42.162;24.726;2024-01-15T08:31:14;321.57;;;126.07;;
7017;SDS011;3549;42.162;24.726;2024-01-15T08:33:39;84.83;;;31.83;;
7017;SDS011;3549;42.162;24.726;2024-01-15T08:36:05;80.63;;;34.33;;
7017;SDS011;3549;42.162;24.726;2024-01-15T08:38:30;59.83;;;22.63;;
7017;SDS011;3549;42.162;24.726;2024-01-15T08:40:56;66.73;;;29.03;;
7017;SDS011;3549;42.162;24.726;2024-01-15T08:43:24;60.00;;;24.65;;
7017;SDS011;3549;42.162;24.726;2024-01-15T08:45:49;63.40;;;25.37;;
7017;SDS011;3549;42.162;24.726;2024-01-15T08:48:16;80.93;;;34.67;;
7017;SDS011;3549;42.162;24.726;2024-01-15T08:50:42;93.53;;;37.33;;
7017;SDS011;3549;42.162;24.726;2024-01-15T08:53:07;82.17;;;34.63;;
7017;SDS011;3549;42.162;24.726;2024-01-15T08:55:33;78.00;;;32.30;;
7017;SDS011;3549;42.162;24.726;2024-01-15T08:57:59;76.33;;;31.00;;
7017;SDS011;3549;42.162;24.726;2024-01-15T09:00:24;85.70;;;33.03;;
7017;SDS011;3549;42.162;24.726;2024-01-15T09:02:49;72.93;;;32.47;;
7017;SDS011;3549;42.162;24.726;2024-01-15T09:05:15;79.47;;;32.77;;
7017;SDS011;3549;42.162;24.726;2024-01-15T09:07:40;95.07;;;38.17;;
7017;SDS011;3549;42.162;24.726;2024-01-15T09:10:06;98.17;;;38.63;;
7017;SDS011;3549;42.162;24.726;2024-01-15T09:12:32;97.37;;;40.23;;
7017;SDS011;3549;42.162;24.726;2024-01-15T09:14:57;125.63;;;46.83;;
7017;SDS011;3549;42.162;24.726;2024-01-15T09:17:22;117.87;;;46.30;;
7017;SDS011;3549;42.162;24.726;2024-01-15T09:19:48;170.73;;;60.33;;
7017;SDS011;3549;42.162;24.726;2024-01-15T09:22:14;232.07;;;93.83;;
7017;SDS011;3549;42.162;24.726;2024-01-15T09:24:43;269.63;;;111.73;;
7017;SDS011;3549;42.162;24.726;2024-01-15T09:27:09;133.50;;;52.43;;
7017;SDS011;3549;42.162;24.726;2024-01-15T09:29:34;167.50;;;67.47;;
7017;SDS011;3549;42.162;24.726;2024-01-15T09:32:02;119.07;;;45.03;;
7017;SDS011;3549;42.162;24.726;2024-01-15T09:34:29;126.70;;;49.87;;
7017;SDS011;3549;42.162;24.726;2024-01-15T09:36:54;112.57;;;45.10;;
7017;SDS011;3549;42.162;24.726;2024-01-15T09:39:20;95.57;;;38.20;;
7017;SDS011;3549;42.162;24.726;2024-01-15T09:41:46;153.93;;;57.13;;
7017;SDS011;3549;42.162;24.726;2024-01-15T09:44:13;147.40;;;55.93;;
7017;SDS011;3549;42.162;24.726;2024-01-15T09:46:39;109.20;;;47.73;;
7017;SDS011;3549;42.162;24.726;2024-01-15T09:49:05;151.53;;;57.97;;
7017;SDS011;3549;42.162;24.726;2024-01-15T09:51:31;155.20;;;53.93;;
7017;SDS011;3549;42.162;24.726;2024-01-15T09:53:57;106.43;;;42.50;;
7017;SDS011;3549;42.162;24.726;2024-01-15T09:56:23;111.47;;;48.27;;
7017;SDS011;3549;42.162;24.726;2024-01-15T09:58:49;99.97;;;42.50;;
7017;SDS011;3549;42.162;24.726;2024-01-15T10:01:17;91.07;;;33.93;;
7017;SDS011;3549;42.162;24.726;2024-01-15T10:03:45;60.13;;;24.30;;
7017;SDS011;3549;42.162;24.726;2024-01-15T10:06:11;73.33;;;31.20;;
7017;SDS011;3549;42.162;24.726;2024-01-15T10:08:49;83.13;;;33.90;;
7017;SDS011;3549;42.162;24.726;2024-01-15T10:11:15;97.20;;;39.70;;
7017;SDS011;3549;42.162;24.726;2024-01-15T10:13:44;92.93;;;37.83;;
7017;SDS011;3549;42.162;24.726;2024-01-15T10:16:10;109.40;;;39.13;;
7017;SDS011;3549;42.162;24.726;2024-01-15T10:18:36;73.67;;;29.83;;
7017;SDS011;3549;42.162;24.726;2024-01-15T10:21:11;62.97;;;28.17;;
7017;SDS011;3549;42.162;24.726;2024-01-15T10:23:36;79.33;;;35.70;;
7017;SDS011;3549;42.162;24.726;2024-01-15T10:26:02;80.17;;;31.70;;
7017;SDS011;3549;42.162;24.726;2024-01-15T10:28:28;97.67;;;37.93;;
7017;SDS011;3549;42.162;24.726;2024-01-15T10:30:56;83.43;;;32.97;;
7017;SDS011;3549;42.162;24.726;2024-01-15T10:33:24;62.43;;;25.07;;
7017;SDS011;3549;42.162;24.726;2024-01-15T10:35:50;84.57;;;33.03;;
7017;SDS011;3549;42.162;24.726;2024-01-15T10:38:19;70.70;;;30.33;;
7017;SDS011;3549;42.162;24.726;2024-01-15T10:40:47;55.53;;;23.83;;
7017;SDS011;3549;42.162;24.726;2024-01-15T10:43:19;105.90;;;41.23;;
7017;SDS011;3549;42.162;24.726;2024-01-15T10:45:49;67.30;;;30.63;;
7017;SDS011;3549;42.162;24.726;2024-01-15T10:48:18;79.87;;;33.17;;
7017;SDS011;3549;42.162;24.726;2024-01-15T10:50:45;69.73;;;30.33;;
7017;SDS011;3549;42.162;24.726;2024-01-15T10:53:11;80.87;;;33.93;;
7017;SDS011;3549;42.162;24.726;2024-01-15T10:55:38;75.10;;;33.40;;
7017;SDS011;3549;42.162;24.726;2024-01-15T10:58:08;73.53;;;33.43;;
7017;SDS011;3549;42.162;24.726;2024-01-15T11:00:35;75.90;;;34.40;;
7017;SDS011;3549;42.162;24.726;2024-01-15T11:03:02;80.70;;;37.07;;
7017;SDS011;3549;42.162;24.726;2024-01-15T11:05:41;79.47;;;36.47;;
7017;SDS011;3549;42.162;24.726;2024-01-15T11:08:08;78.30;;;35.73;;
7017;SDS011;3549;42.162;24.726;2024-01-15T11:13:08;85.87;;;38.37;;
7017;SDS011;3549;42.162;24.726;2024-01-15T11:15:54;87.33;;;39.87;;
7017;SDS011;3549;42.162;24.726;2024-01-15T11:18:20;65.87;;;29.73;;
7017;SDS011;3549;42.162;24.726;2024-01-15T11:23:44;69.30;;;32.90;;
7017;SDS011;3549;42.162;24.726;2024-01-15T11:28:59;70.93;;;31.03;;
7017;SDS011;3549;42.162;24.726;2024-01-15T11:34:03;63.33;;;30.63;;
7017;SDS011;3549;42.162;24.726;2024-01-15T11:41:57;60.10;;;27.00;;
7017;SDS011;3549;42.162;24.726;2024-01-15T11:44:25;74.23;;;30.67;;
7017;SDS011;3549;42.162;24.726;2024-01-15T11:52:05;67.37;;;30.93;;
7017;SDS011;3549;42.162;24.726;2024-01-15T11:54:35;103.97;;;40.13;;
7017;SDS011;3549;42.162;24.726;2024-01-15T11:57:07;89.50;;;35.93;;
7017;SDS011;3549;42.162;24.726;2024-01-15T11:59:40;57.67;;;28.70;;
7017;SDS011;3549;42.162;24.726;2024-01-15T12:02:06;58.83;;;28.63;;
7017;SDS011;3549;42.162;24.726;2024-01-15T12:04:32;60.70;;;29.10;;
7017;SDS011;3549;42.162;24.726;2024-01-15T12:06:58;67.47;;;30.33;;
7017;SDS011;3549;42.162;24.726;2024-01-15T12:09:23;78.80;;;33.83;;
7017;SDS011;3549;42.162;24.726;2024-01-15T12:11:54;81.90;;;35.70;;
7017;SDS011;3549;42.162;24.726;2024-01-15T12:14:30;81.93;;;34.67;;
7017;SDS011;3549;42.162;24.726;2024-01-15T12:16:56;173.83;;;53.23;;
7017;SDS011;3549;42.162;24.726;2024-01-15T12:19:22;81.47;;;35.17;;
7017;SDS011;3549;42.162;24.726;2024-01-15T12:21:48;90.13;;;38.00;;
7017;SDS011;3549;42.162;24.726;2024-01-15T12:24:16;144.40;;;64.00;;
7017;SDS011;3549;42.162;24.726;2024-01-15T12:26:42;80.93;;;34.13;;
7017;SDS011;3549;42.162;24.726;2024-01-15T12:29:08;88.53;;;38.17;;
7017;SDS011;3549;42.162;24.726;2024-01-15T12:31:36;87.03;;;38.20;;
7017;SDS011;3549;42.162;24.726;2024-01-15T12:34:01;92.37;;;39.60;;
7017;SDS011;3549;42.162;24.726;2024-01-15T12:36:30;85.23;;;37.93;;
7017;SDS011;3549;42.162;24.726;2024-01-15T12:38:59;90.20;;;39.33;;
7017;SDS011;3549;42.162;24.726;2024-01-15T12:41:27;89.77;;;38.60;;
7017;SDS011;3549;42.162;24.726;2024-01-15T12:43:52;94.53;;;41.43;;
7017;SDS011;3549;42.162;24.726;2024-01-15T12:46:18;100.50;;;44.33;;
7017;SDS011;3549;42.162;24.726;2024-01-15T12:48:44;93.20;;;42.00;;
7017;SDS011;3549;42.162;24.726;2024-01-15T12:51:10;87.73;;;41.03;;
7017;SDS011;3549;42.162;24.726;2024-01-15T12:53:35;94.93;;;42.80;;
7017;SDS011;3549;42.162;24.726;2024-01-15T12:56:01;99.53;;;42.67;;
7017;SDS011;3549;42.162;24.726;2024-01-15T12:58:26;97.63;;;43.30;;
7017;SDS011;3549;42.162;24.726;2024-01-15T13:00:52;103.47;;;46.27;;
7017;SDS011;3549;42.162;24.726;2024-01-15T13:03:17;99.17;;;43.97;;
7017;SDS011;3549;42.162;24.726;2024-01-15T13:05:43;70.57;;;29.30;;
7017;SDS011;3549;42.162;24.726;2024-01-15T13:08:10;86.87;;;36.70;;
7017;SDS011;3549;42.162;24.726;2024-01-15T13:10:35;90.23;;;37.97;;
7017;SDS011;3549;42.162;24.726;2024-01-15T13:13:01;67.50;;;29.03;;
7017;SDS011;3549;42.162;24.726;2024-01-15T13:15:26;57.90;;;25.87;;
7017;SDS011;3549;42.162;24.726;2024-01-15T13:17:52;77.77;;;32.33;;
7017;SDS011;3549;42.162;24.726;2024-01-15T13:20:17;80.00;;;30.80;;
7017;SDS011;3549;42.162;24.726;2024-01-15T13:22:43;121.67;;;49.83;;
7017;SDS011;3549;42.162;24.726;2024-01-15T13:25:09;62.53;;;25.93;;
7017;SDS011;3549;42.162;24.726;2024-01-15T13:27:36;62.63;;;27.43;;
7017;SDS011;3549;42.162;24.726;2024-01-15T13:30:02;66.93;;;26.70;;
7017;SDS011;3549;42.162;24.726;2024-01-15T13:32:28;67.00;;;28.73;;
7017;SDS011;3549;42.162;24.726;2024-01-15T13:34:56;63.47;;;27.57;;
7017;SDS011;3549;42.162;24.726;2024-01-15T13:37:22;79.87;;;33.10;;
7017;SDS011;3549;42.162;24.726;2024-01-15T13:39:49;73.70;;;32.47;;
7017;SDS011;3549;42.162;24.726;2024-01-15T13:42:16;71.87;;;30.90;;
7017;SDS011;3549;42.162;24.726;2024-01-15T13:44:42;78.90;;;34.37;;
7017;SDS011;3549;42.162;24.726;2024-01-15T13:47:07;79.13;;;33.57;;
7017;SDS011;3549;42.162;24.726;2024-01-15T13:49:33;82.50;;;35.90;;
7017;SDS011;3549;42.162;24.726;2024-01-15T13:52:01;81.90;;;36.00;;
7017;SDS011;3549;42.162;24.726;2024-01-15T13:54:28;88.83;;;37.60;;
7017;SDS011;3549;42.162;24.726;2024-01-15T13:56:55;94.37;;;38.80;;
7017;SDS011;3549;42.162;24.726;2024-01-15T13:59:20;90.17;;;35.33;;
7017;SDS011;3549;42.162;24.726;2024-01-15T14:01:46;97.43;;;38.17;;
7017;SDS011;3549;42.162;24.726;2024-01-15T14:04:12;98.63;;;36.23;;
7017;SDS011;3549;42.162;24.726;2024-01-15T14:06:37;84.07;;;34.63;;
7017;SDS011;3549;42.162;24.726;2024-01-15T14:09:04;72.03;;;31.63;;
7017;SDS011;3549;42.162;24.726;2024-01-15T14:11:29;73.47;;;32.33;;
7017;SDS011;3549;42.162;24.726;2024-01-15T14:13:55;73.93;;;32.47;;
7017;SDS011;3549;42.162;24.726;2024-01-15T14:16:21;71.27;;;31.10;;
7017;SDS011;3549;42.162;24.726;2024-01-15T14:18:48;74.47;;;30.40;;
7017;SDS011;3549;42.162;24.726;2024-01-15T14:21:13;77.33;;;31.70;;
7017;SDS011;3549;42.162;24.726;2024-01-15T14:23:40;75.60;;;30.90;;
7017;SDS011;3549;42.162;24.726;2024-01-15T14:26:05;69.87;;;31.13;;
7017;SDS011;3549;42.162;24.726;2024-01-15T14:28:31;78.77;;;34.60;;
7017;SDS011;3549;42.162;24.726;2024-01-15T14:30:56;88.40;;;37.83;;
7017;SDS011;3549;42.162;24.726;2024-01-15T14:33:25;84.93;;;35.30;;
7017;SDS011;3549;42.162;24.726;2024-01-15T14:35:53;72.47;;;32.47;;
7017;SDS011;3549;42.162;24.726;2024-01-15T14:38:18;74.50;;;32.03;;
7017;SDS011;3549;42.162;24.726;2024-01-15T14:40:46;69.00;;;30.87;;
7017;SDS011;3549;42.162;24.726;2024-01-15T14:43:12;68.30;;;29.57;;